Time;durP1;ratioP1;P1;durP2;ratioP2;P2;SDS_P1;SDS_P2;PMS_P1;PMS_P2;Temp;Humidity;BMP_temperature;BMP_pressure;BME280_temperature;BME280_humidity;BME280_pressure;Samples;Min_cycle;Max_cycle;Signal;HPM_P1;HPM_P2
2024/01/06 00:02:05;;;;;;;223.80;63.00;;;;;;;-128.00;-1.00;-1.00;100477;1280;1056078;-31
2024/01/06 00:04:32;;;;;;;257.80;78.00;;;;;;;-128.00;-1.00;-1.00;100422;1284;1003122;-32
2024/01/06 00:06:57;;;;;;;193.70;60.90;;;;;;;-128.00;-1.00;-1.00;100474;1280;1003451;-30
2024/01/06 00:09:23;;;;;;;100.80;37.80;;;;;;;-128.00;-1.00;-1.00;100545;1284;1002512;-36
2024/01/06 00:11:49;;;;;;;110.40;41.10;;;;;;;-128.00;-1.00;-1.00;100546;1279;1061262;-31
2024/01/06 00:14:14;;;;;;;164.20;54.80;;;;;;;-128.00;-1.00;-1.00;100511;1279;1004246;-32
2024/01/06 00:16:40;;;;;;;115.50;39.70;;;;;;;-128.00;-1.00;-1.00;100469;1280;1002214;-30
2024/01/06 00:19:05;;;;;;;96.00;36.00;;;;;;;-128.00;-1.00;-1.00;100578;1284;1003208;-32
2024/01/06 00:21:31;;;;;;;103.60;37.20;;;;;;;-128.00;-1.00;-1.00;100495;1279;1003475;-30
2024/01/06 00:23:57;;;;;;;105.60;37.80;;;;;;;-128.00;-1.00;-1.00;100559;1280;1003851;-33
2024/01/06 00:26:24;;;;;;;94.90;35.50;;;;;;;-128.00;-1.00;-1.00;100553;1279;1058085;-32
2024/01/06 00:28:50;;;;;;;182.70;64.10;;;;;;;-128.00;-1.00;-1.00;100547;1280;1004090;-35
2024/01/06 00:31:17;;;;;;;157.20;57.80;;;;;;;-128.00;-1.00;-1.00;100556;1279;1005013;-30
2024/01/06 00:33:43;;;;;;;143.20;52.60;;;;;;;-128.00;-1.00;-1.00;100611;1280;1004424;-29
2024/01/06 00:36:09;;;;;;;124.50;46.80;;;;;;;-128.00;-1.00;-1.00;100548;1280;1003668;-31
2024/01/06 00:38:35;;;;;;;145.90;54.50;;;;;;;-128.00;-1.00;-1.00;100514;1280;1002241;-33
2024/01/06 00:41:03;;;;;;;;;;;;;;;-128.00;-1.00;-1.00;100538;1282;1002755;-32
2024/01/06 00:43:29;;;;;;;116.30;43.10;;;;;;;-128.00;-1.00;-1.00;100546;1279;1003753;-31
2024/01/06 00:45:54;;;;;;;110.40;40.60;;;;;;;-128.00;-1.00;-1.00;100610;1279;1003189;-35
2024/01/06 00:48:20;;;;;;;118.70;40.00;;;;;;;-128.00;-1.00;-1.00;100583;1279;1003734;-31
2024/01/06 00:50:46;;;;;;;105.30;37.70;;;;;;;-128.00;-1.00;-1.00;100609;1279;1003531;-32
2024/01/06 00:53:12;;;;;;;104.20;39.50;;;;;;;-128.00;-1.00;-1.00;100510;1280;1003009;-31
2024/01/06 00:55:38;;;;;;;120.60;43.70;;;;;;;-128.00;-1.00;-1.00;100485;1280;1038526;-31
2024/01/06 00:58:03;;;;;;;120.70;42.20;;;;;;;-128.00;-1.00;-1.00;100515;1279;1002639;-30
2024/01/06 01:00:29;;;;;;;126.30;42.40;;;;;;;-128.00;-1.00;-1.00;100687;1279;1003393;-31
2024/01/06 01:02:54;;;;;;;111.30;39.50;;;;;;;-128.00;-1.00;-1.00;100404;1280;1003882;-31
2024/01/06 01:05:20;;;;;;;108.40;37.40;;;;;;;-128.00;-1.00;-1.00;100524;1279;1003037;-33
2024/01/06 01:07:46;;;;;;;128.10;48.30;;;;;;;-128.00;-1.00;-1.00;100537;1284;1003412;-33
2024/01/06 01:10:11;;;;;;;115.60;37.10;;;;;;;-128.00;-1.00;-1.00;100405;1279;1003748;-34
2024/01/06 01:12:37;;;;;;;145.80;47.60;;;;;;;-128.00;-1.00;-1.00;100560;1279;1003457;-33
2024/01/06 01:15:03;;;;;;;187.60;52.50;;;;;;;-128.00;-1.00;-1.00;100509;1279;1004319;-32
2024/01/06 01:17:29;;;;;;;;;;;;;;;-128.00;-1.00;-1.00;100516;1283;1039390;-30
2024/01/06 01:19:55;;;;;;;257.40;63.10;;;;;;;-128.00;-1.00;-1.00;100517;1279;1002758;-32
2024/01/06 01:22:20;;;;;;;226.50;55.70;;;;;;;-128.00;-1.00;-1.00;100487;1280;1004033;-31
2024/01/06 01:24:46;;;;;;;265.90;65.80;;;;;;;-128.00;-1.00;-1.00;100534;1279;1059277;-34
2024/01/06 01:27:12;;;;;;;194.40;50.80;;;;;;;-128.00;-1.00;-1.00;100428;1279;1002664;-31
2024/01/06 01:29:37;;;;;;;162.20;46.40;;;;;;;-128.00;-1.00;-1.00;100555;1279;1003341;-30
2024/01/06 01:32:03;;;;;;;165.70;50.10;;;;;;;-128.00;-1.00;-1.00;100577;1280;1060326;-32
2024/01/06 01:34:29;;;;;;;146.70;49.20;;;;;;;-128.00;-1.00;-1.00;100480;1280;1002653;-33
2024/01/06 01:36:55;;;;;;;136.40;46.30;;;;;;;-128.00;-1.00;-1.00;100478;1280;1005162;-32
2024/01/06 01:39:20;;;;;;;;;;;;;;;-128.00;-1.00;-1.00;100484;1283;1039057;-33
2024/01/06 01:41:46;;;;;;;92.40;33.70;;;;;;;-128.00;-1.00;-1.00;100526;1279;1003233;-33
2024/01/06 01:44:12;;;;;;;92.50;36.20;;;;;;;-128.00;-1.00;-1.00;100530;1279;1003324;-32
2024/01/06 01:46:37;;;;;;;118.40;44.20;;;;;;;-128.00;-1.00;-1.00;100563;1279;1003386;-33
2024/01/06 01:49:03;;;;;;;112.80;42.80;;;;;;;-128.00;-1.00;-1.00;100592;1279;1003802;-32
2024/01/06 01:51:29;;;;;;;129.30;47.00;;;;;;;-128.00;-1.00;-1.00;100523;1280;1046541;-32
2024/01/06 02:34:09;;;;;;;129.20;40.10;;;;;;;-102.56;19.20;19677.12;100690;1282;1601203;-31
2024/01/06 02:36:35;;;;;;;133.70;40.40;;;;;;;-128.00;-1.00;-1.00;100214;1283;1003496;-31
2024/01/06 02:39:02;;;;;;;108.50;35.60;;;;;;;-128.00;-1.00;-1.00;100293;1285;1047830;-32
2024/01/06 02:41:27;;;;;;;108.70;34.30;;;;;;;-128.00;-1.00;-1.00;100192;1282;1002420;-33
2024/01/06 02:43:54;;;;;;;119.30;39.10;;;;;;;-128.00;-1.00;-1.00;100213;1286;1003162;-32
2024/01/06 02:46:20;;;;;;;107.30;33.70;;;;;;;-128.00;-1.00;-1.00;100290;1282;1002892;-30
2024/01/06 02:48:45;;;;;;;115.80;36.40;;;;;;;-128.00;-1.00;-1.00;100260;1285;1003401;-30
2024/01/06 02:51:12;;;;;;;120.20;38.00;;;;;;;-128.00;-1.00;-1.00;100190;1282;1005096;-30
2024/01/06 02:53:38;;;;;;;155.40;47.80;;;;;;;-128.00;-1.00;-1.00;100115;1282;1003275;-31
2024/01/06 02:56:04;;;;;;;152.20;46.30;;;;;;;-128.00;-1.00;-1.00;100150;1283;1002788;-31
2024/01/06 02:58:29;;;;;;;;;;;;;;;-128.00;-1.00;-1.00;100265;1281;1003079;-32
2024/01/06 03:00:55;;;;;;;98.90;33.10;;;;;;;-128.00;-1.00;-1.00;100263;1282;1003767;-34
2024/01/06 03:03:20;;;;;;;112.30;34.70;;;;;;;-128.00;-1.00;-1.00;100238;1283;1004137;-33
2024/01/06 03:05:48;;;;;;;126.90;36.70;;;;;;;-128.00;-1.00;-1.00;100201;1282;1003374;-31
2024/01/06 03:08:15;;;;;;;104.20;32.10;;;;;;;-128.00;-1.00;-1.00;100201;1283;1003392;-32
2024/01/06 03:10:41;;;;;;;126.00;35.30;;;;;;;-128.00;-1.00;-1.00;100261;1286;1003707;-38
2024/01/06 03:13:07;;;;;;;109.10;33.40;;;;;;;-128.00;-1.00;-1.00;100208;1282;1003062;-32
2024/01/06 03:15:32;;;;;;;113.00;35.90;;;;;;;-128.00;-1.00;-1.00;100322;1286;1003726;-34
2024/01/06 03:17:58;;;;;;;111.70;33.50;;;;;;;-128.00;-1.00;-1.00;100174;1285;1059116;-31
2024/01/06 03:20:23;;;;;;;117.80;35.80;;;;;;;-128.00;-1.00;-1.00;100228;1282;1003220;-30
2024/01/06 03:22:49;;;;;;;123.90;35.30;;;;;;;-128.00;-1.00;-1.00;100146;1285;1047959;-30
2024/01/06 03:25:15;;;;;;;121.80;37.60;;;;;;;-128.00;-1.00;-1.00;100158;1282;1003050;-30
2024/01/06 03:27:40;;;;;;;122.20;36.30;;;;;;;-128.00;-1.00;-1.00;100255;1281;1003367;-34
2024/01/06 03:30:06;;;;;;;160.30;43.00;;;;;;;-128.00;-1.00;-1.00;100151;1282;1012427;-32
2024/01/06 03:32:32;;;;;;;163.10;41.80;;;;;;;-128.00;-1.00;-1.00;100267;1282;1003485;-32
2024/01/06 03:34:57;;;;;;;138.70;38.50;;;;;;;-128.00;-1.00;-1.00;100231;1282;1004408;-32
2024/01/06 03:37:24;;;;;;;123.30;36.90;;;;;;;-128.00;-1.00;-1.00;100165;1282;1056144;-32
2024/01/06 03:39:49;;;;;;;144.70;40.60;;;;;;;-128.00;-1.00;-1.00;100222;1282;1003185;-32
2024/01/06 03:42:15;;;;;;;108.70;34.50;;;;;;;-128.00;-1.00;-1.00;100223;1283;1003498;-33
2024/01/06 03:44:40;;;;;;;115.20;34.30;;;;;;;-128.00;-1.00;-1.00;100220;1282;1002486;-34
2024/01/06 03:47:06;;;;;;;126.30;38.60;;;;;;;-128.00;-1.00;-1.00;100322;1283;1003714;-44
2024/01/06 03:49:31;;;;;;;126.60;36.90;;;;;;;-128.00;-1.00;-1.00;100175;1283;1003239;-31
2024/01/06 03:51:57;;;;;;;126.80;38.40;;;;;;;-128.00;-1.00;-1.00;100152;1282;1003119;-30
2024/01/06 03:54:23;;;;;;;133.60;39.40;;;;;;;-128.00;-1.00;-1.00;100167;1282;1046403;-31
2024/01/06 03:56:48;;;;;;;143.30;42.70;;;;;;;-128.00;-1.00;-1.00;100283;1282;1003824;-31
2024/01/06 03:59:14;;;;;;;142.80;41.30;;;;;;;-128.00;-1.00;-1.00;100173;1282;1060549;-30
2024/01/06 04:01:39;;;;;;;130.30;39.10;;;;;;;-128.00;-1.00;-1.00;100192;1282;1002957;-32
2024/01/06 04:04:06;;;;;;;130.50;38.40;;;;;;;-128.00;-1.00;-1.00;100235;1282;1004363;-32
2024/01/06 04:06:32;;;;;;;129.80;38.30;;;;;;;-128.00;-1.00;-1.00;100148;1282;1059827;-34
2024/01/06 04:08:58;;;;;;;131.80;38.90;;;;;;;-128.00;-1.00;-1.00;100226;1283;1002919;-33
2024/01/06 04:11:24;;;;;;;105.40;35.00;;;;;;;-128.00;-1.00;-1.00;100286;1282;1003233;-32
2024/01/06 04:13:49;;;;;;;115.20;35.10;;;;;;;-128.00;-1.00;-1.00;100316;1282;1002755;-34
2024/01/06 04:16:15;;;;;;;110.90;33.00;;;;;;;-128.00;-1.00;-1.00;100260;1282;1004153;-36
2024/01/06 04:18:40;;;;;;;110.10;35.00;;;;;;;-128.00;-1.00;-1.00;100135;1282;1057592;-34
2024/01/06 04:21:06;;;;;;;102.60;34.20;;;;;;;-128.00;-1.00;-1.00;100252;1282;1003223;-31
2024/01/06 04:23:31;;;;;;;99.00;32.50;;;;;;;-128.00;-1.00;-1.00;100238;1282;1003449;-31
2024/01/06 04:25:57;;;;;;;89.50;31.10;;;;;;;-128.00;-1.00;-1.00;100219;1282;1003502;-31
2024/01/06 04:28:22;;;;;;;88.40;27.90;;;;;;;-128.00;-1.00;-1.00;100166;1282;1003941;-31
2024/01/06 04:30:48;;;;;;;99.70;33.00;;;;;;;-128.00;-1.00;-1.00;100155;1282;1005343;-31
2024/01/06 04:33:14;;;;;;;102.20;31.60;;;;;;;-128.00;-1.00;-1.00;100276;1282;1003479;-31
2024/01/06 04:35:39;;;;;;;84.50;29.30;;;;;;;-128.00;-1.00;-1.00;100254;1282;1004204;-32
2024/01/06 04:38:05;;;;;;;88.60;29.60;;;;;;;-128.00;-1.00;-1.00;100134;1282;1002724;-32
2024/01/06 04:40:30;;;;;;;79.80;28.70;;;;;;;-128.00;-1.00;-1.00;100215;1282;1003381;-32
2024/01/06 04:42:56;;;;;;;82.30;30.00;;;;;;;-128.00;-1.00;-1.00;100201;1282;1014010;-30
2024/01/06 04:45:23;;;;;;;83.90;30.20;;;;;;;-128.00;-1.00;-1.00;100208;1282;1003955;-30
2024/01/06 04:47:50;;;;;;;76.20;27.20;;;;;;;-128.00;-1.00;-1.00;100221;1282;1003661;-34
2024/01/06 04:50:16;;;;;;;74.60;27.20;;;;;;;-128.00;-1.00;-1.00;100261;1282;1003517;-31
2024/01/06 04:52:41;;;;;;;83.70;30.90;;;;;;;-128.00;-1.00;-1.00;100195;1283;1003799;-33
2024/01/06 04:55:08;;;;;;;72.50;27.10;;;;;;;-128.00;-1.00;-1.00;100161;1282;1003254;-33
2024/01/06 04:57:33;;;;;;;;;;;;;;;-128.00;-1.00;-1.00;100157;1286;1038809;-33
2024/01/06 04:59:59;;;;;;;77.80;29.70;;;;;;;-128.00;-1.00;-1.00;100263;1282;1003376;-30
2024/01/06 05:02:25;;;;;;;;;;;;;;;-128.00;-1.00;-1.00;100264;1282;1056317;-32
2024/01/06 05:04:51;;;;;;;87.30;29.50;;;;;;;-128.00;-1.00;-1.00;100269;1282;1002644;-30
2024/01/06 05:07:16;;;;;;;77.20;29.30;;;;;;;-128.00;-1.00;-1.00;100213;1282;1004904;-32
2024/01/06 05:09:42;;;;;;;79.10;29.30;;;;;;;-128.00;-1.00;-1.00;100134;1282;1002973;-32
2024/01/06 05:12:08;;;;;;;80.40;28.40;;;;;;;-128.00;-1.00;-1.00;100168;1282;1003972;-30
2024/01/06 05:14:33;;;;;;;82.50;29.90;;;;;;;-128.00;-1.00;-1.00;100298;1283;1003653;-33
2024/01/06 05:16:59;;;;;;;85.00;31.20;;;;;;;-128.00;-1.00;-1.00;100260;1282;1013541;-32
2024/01/06 05:19:24;;;;;;;78.00;30.20;;;;;;;-128.00;-1.00;-1.00;100233;1286;1004596;-29
2024/01/06 05:21:50;;;;;;;80.40;29.10;;;;;;;-128.00;-1.00;-1.00;100098;1282;1061204;-34
2024/01/06 05:24:16;;;;;;;83.80;29.20;;;;;;;-128.00;-1.00;-1.00;100241;1282;1003061;-32
2024/01/06 05:26:41;;;;;;;74.90;27.60;;;;;;;-128.00;-1.00;-1.00;100115;1282;1013973;-29
2024/01/06 05:29:07;;;;;;;73.20;28.40;;;;;;;-128.00;-1.00;-1.00;100245;1284;1002530;-32
2024/01/06 05:31:33;;;;;;;73.50;27.50;;;;;;;-128.00;-1.00;-1.00;100150;1282;1061174;-32
2024/01/06 05:33:58;;;;;;;63.40;24.70;;;;;;;-128.00;-1.00;-1.00;100206;1282;1003546;-29
2024/01/06 05:36:25;;;;;;;68.30;26.30;;;;;;;-128.00;-1.00;-1.00;100202;1286;1003174;-33
2024/01/06 05:38:50;;;;;;;71.30;28.30;;;;;;;-128.00;-1.00;-1.00;100224;1285;1038640;-33
2024/01/06 05:41:16;;;;;;;74.40;29.80;;;;;;;-128.00;-1.00;-1.00;100243;1282;1002846;-31
2024/01/06 05:43:41;;;;;;;73.90;26.80;;;;;;;-128.00;-1.00;-1.00;100239;1282;1003595;-32
2024/01/06 05:46:07;;;;;;;67.00;28.30;;;;;;;-128.00;-1.00;-1.00;100150;1282;1003367;-33
2024/01/06 05:48:33;;;;;;;68.40;25.40;;;;;;;-128.00;-1.00;-1.00;100216;1282;1003575;-31
2024/01/06 05:50:58;;;;;;;60.70;23.50;;;;;;;-128.00;-1.00;-1.00;100187;1282;1048064;-32
2024/01/06 05:53:24;;;;;;;65.10;25.50;;;;;;;-128.00;-1.00;-1.00;100178;1282;1002968;-31
2024/01/06 05:55:50;;;;;;;52.60;21.40;;;;;;;-128.00;-1.00;-1.00;100256;1282;1003124;-33
2024/01/06 05:58:16;;;;;;;;;;;;;;;-128.00;-1.00;-1.00;100229;1282;1013784;-31
2024/01/06 06:00:41;;;;;;;47.20;19.80;;;;;;;-128.00;-1.00;-1.00;100191;1282;1003567;-33
2024/01/06 06:03:07;;;;;;;49.10;19.80;;;;;;;-128.00;-1.00;-1.00;100201;1282;1003623;-33
2024/01/06 06:05:33;;;;;;;;;;;;;;;-128.00;-1.00;-1.00;100179;1282;1057576;-32
2024/01/06 06:07:58;;;;;;;52.80;18.90;;;;;;;-128.00;-1.00;-1.00;100258;1282;1003845;-32
2024/01/06 06:10:29;;;;;;;50.90;20.60;;;;;;;-128.00;-1.00;-1.00;100262;1286;1004780;-33
2024/01/06 06:12:55;;;;;;;47.70;21.00;;;;;;;-128.00;-1.00;-1.00;100224;1282;1047439;-32
2024/01/06 06:15:21;;;;;;;52.20;21.20;;;;;;;-128.00;-1.00;-1.00;100210;1282;1003659;-33
2024/01/06 06:17:46;;;;;;;57.30;22.90;;;;;;;-128.00;-1.00;-1.00;100212;1282;1004174;-35
2024/01/06 06:20:12;;;;;;;49.00;21.70;;;;;;;-128.00;-1.00;-1.00;100178;1282;1013772;-30
2024/01/06 06:22:37;;;;;;;43.70;19.20;;;;;;;-128.00;-1.00;-1.00;100271;1282;1003146;-33
2024/01/06 06:25:03;;;;;;;44.60;18.50;;;;;;;-128.00;-1.00;-1.00;100262;1282;1003538;-32
2024/01/06 06:27:29;;;;;;;55.50;21.90;;;;;;;-128.00;-1.00;-1.00;100163;1282;1057294;-31
2024/01/06 06:29:56;;;;;;;48.50;20.50;;;;;;;-128.00;-1.00;-1.00;100158;1283;1004296;-32
2024/01/06 06:32:21;;;;;;;49.80;20.40;;;;;;;-128.00;-1.00;-1.00;100243;1282;1004412;-33
2024/01/06 06:34:49;;;;;;;45.70;20.60;;;;;;;-128.00;-1.00;-1.00;99554;1282;3002928;-32
2024/01/06 06:41:42;;;;;;;45.70;20.60;;;;;;;-128.00;-1.00;-1.00;22170;1287;360127470;-32
2024/01/06 06:53:01;;;;;;;45.70;20.60;;;;;;;-128.00;-1.00;-1.00;4;7505525;579198040;-32
2024/01/06 07:02:12;;;;;;;45.70;20.60;;;;;;;-128.00;-1.00;-1.00;2;543183433;543183433;-31
2024/01/06 07:12:17;;;;;;;45.70;20.60;;;;;;;-128.00;-1.00;-1.00;2;597204531;597204531;-30
2024/01/06 07:19:49;;;;;;;45.70;20.60;;;;;;;-128.00;-1.00;-1.00;2;444149606;444149606;-31
2024/01/06 07:26:01;;;;;;;45.70;20.60;;;;;;;-128.00;-1.00;-1.00;2;363126432;363126432;-31
2024/01/06 07:37:19;;;;;;;45.70;20.60;;;;;;;-128.00;-1.00;-1.00;4;7504972;579198262;-30
2024/01/06 07:46:32;;;;;;;45.70;20.60;;;;;;;-128.00;-1.00;-1.00;2;543186095;543186095;-32
2024/01/06 07:56:36;;;;;;;45.70;20.60;;;;;;;-128.00;-1.00;-1.00;2;596600652;596600652;-32
2024/01/06 08:04:10;;;;;;;45.70;20.60;;;;;;;-128.00;-1.00;-1.00;2;444154403;444154403;-32
2024/01/06 08:10:21;;;;;;;45.70;20.60;;;;;;;-128.00;-1.00;-1.00;2;363128923;363128923;-32
2024/01/06 08:18:25;;;;;;;45.70;20.60;;;;;;;-128.00;-1.00;-1.00;4;7505239;388892230;-33
2024/01/06 08:20:59;;;;;;;45.70;20.60;;;;;;;-128.00;-1.00;-1.00;3;3003039;147543621;-33
2024/01/06 08:23:25;;;;;;;37.80;15.60;;;;;;;-128.00;-1.00;-1.00;12029;1282;78269531;-35
2024/01/06 08:27:06;;;;;;;37.80;15.60;;;;;;;-128.00;-1.00;-1.00;8091;1294;79285883;-31
2024/01/06 08:29:32;;;;;;;50.00;22.70;;;;;;;-128.00;-1.00;-1.00;52873;1282;50007373;-34
2024/01/06 08:31:57;;;;;;;48.40;21.20;;;;;;;-128.00;-1.00;-1.00;100167;1282;1003061;-33
2024/01/06 08:34:23;;;;;;;54.90;22.80;;;;;;;-128.00;-1.00;-1.00;100229;1282;1004170;-31
2024/01/06 08:36:50;;;;;;;75.90;29.90;;;;;;;-128.00;-1.00;-1.00;100201;1282;1003876;-32
2024/01/06 08:39:16;;;;;;;52.10;22.00;;;;;;;-128.00;-1.00;-1.00;100201;1282;1004108;-31
2024/01/06 08:41:42;;;;;;;50.10;23.30;;;;;;;-128.00;-1.00;-1.00;100293;1282;1002813;-33
2024/01/06 08:44:08;;;;;;;49.10;21.70;;;;;;;-128.00;-1.00;-1.00;98647;1284;2205714;-31
2024/01/06 08:51:46;;;;;;;49.10;21.70;;;;;;;-128.00;-1.00;-1.00;51143;1286;379549851;-32
2024/01/06 08:59:19;;;;;;;49.10;21.70;;;;;;;-128.00;-1.00;-1.00;3;3003219;441152370;-33
2024/01/06 09:05:31;;;;;;;49.10;21.70;;;;;;;-128.00;-1.00;-1.00;2;363125009;363125009;-32
2024/01/06 09:16:50;;;;;;;49.10;21.70;;;;;;;-128.00;-1.00;-1.00;4;7505647;579191150;-32
2024/01/06 09:21:38;;;;;;;49.10;21.70;;;;;;;-128.00;-1.00;-1.00;2;284529779;284529779;-32
2024/01/06 09:31:43;;;;;;;49.10;21.70;;;;;;;-128.00;-1.00;-1.00;3;3002757;593119065;-33
2024/01/06 09:39:15;;;;;;;49.10;21.70;;;;;;;-128.00;-1.00;-1.00;2;444155727;444155727;-31
2024/01/06 09:45:26;;;;;;;49.10;21.70;;;;;;;-128.00;-1.00;-1.00;2;363126294;363126294;-32
2024/01/06 09:56:45;;;;;;;49.10;21.70;;;;;;;-128.00;-1.00;-1.00;4;7505011;579194148;-31
2024/01/06 10:06:00;;;;;;;49.10;21.70;;;;;;;-128.00;-1.00;-1.00;2;543185622;543185622;-32
2024/01/06 10:16:06;;;;;;;49.10;21.70;;;;;;;-128.00;-1.00;-1.00;2;597204639;597204639;-32
2024/01/06 10:23:38;;;;;;;49.10;21.70;;;;;;;-128.00;-1.00;-1.00;2;444153689;444153689;-30
2024/01/06 10:29:49;;;;;;;49.10;21.70;;;;;;;-128.00;-1.00;-1.00;2;363127712;363127712;-31
2024/01/06 10:41:09;;;;;;;49.10;21.70;;;;;;;-128.00;-1.00;-1.00;4;7504255;579196958;-33
2024/01/06 10:50:21;;;;;;;49.10;21.70;;;;;;;-128.00;-1.00;-1.00;2;543184234;543184234;-30
2024/01/06 11:00:26;;;;;;;49.10;21.70;;;;;;;-128.00;-1.00;-1.00;2;597201873;597201873;-32
2024/01/06 11:08:00;;;;;;;49.10;21.70;;;;;;;-128.00;-1.00;-1.00;2;444001127;444001127;-31
2024/01/06 11:14:24;;;;;;;49.10;21.70;;;;;;;-128.00;-1.00;-1.00;2;363125876;363125876;-31
2024/01/06 11:17:10;;;;;;;49.10;21.70;;;;;;;-128.00;-1.00;-1.00;4;7504344;84035740;-32
2024/01/06 11:26:23;;;;;;;49.10;21.70;;;;;;;-128.00;-1.00;-1.00;2;543183104;543183104;-30
2024/01/06 11:36:28;;;;;;;49.10;21.70;;;;;;;-128.00;-1.00;-1.00;2;597203736;597203736;-31
2024/01/06 11:44:00;;;;;;;49.10;21.70;;;;;;;-128.00;-1.00;-1.00;2;444155243;444155243;-30
2024/01/06 11:50:11;;;;;;;49.10;21.70;;;;;;;-128.00;-1.00;-1.00;2;363128117;363128117;-32
2024/01/06 12:01:37;;;;;;;49.10;21.70;;;;;;;-128.00;-1.00;-1.00;4;7504605;579199098;-32
2024/01/06 12:10:48;;;;;;;49.10;21.70;;;;;;;-128.00;-1.00;-1.00;2;543182239;543182239;-31
2024/01/06 12:20:54;;;;;;;49.10;21.70;;;;;;;-128.00;-1.00;-1.00;2;597196066;597196066;-32
2024/01/06 12:28:26;;;;;;;49.10;21.70;;;;;;;-128.00;-1.00;-1.00;2;444151328;444151328;-33
2024/01/06 12:34:39;;;;;;;49.10;21.70;;;;;;;-128.00;-1.00;-1.00;2;363126123;363126123;-33
2024/01/06 12:45:57;;;;;;;49.10;21.70;;;;;;;-128.00;-1.00;-1.00;4;7504823;579193217;-33
2024/01/06 12:55:09;;;;;;;49.10;21.70;;;;;;;-128.00;-1.00;-1.00;2;543178838;543178838;-32
2024/01/06 13:05:14;;;;;;;49.10;21.70;;;;;;;-128.00;-1.00;-1.00;2;597201404;597201404;-32
2024/01/06 13:12:46;;;;;;;49.10;21.70;;;;;;;-128.00;-1.00;-1.00;2;444154595;444154595;-33
2024/01/06 13:18:57;;;;;;;49.10;21.70;;;;;;;-128.00;-1.00;-1.00;2;363126519;363126519;-33
2024/01/06 13:30:16;;;;;;;49.10;21.70;;;;;;;-128.00;-1.00;-1.00;4;7504139;579198288;-32
2024/01/06 13:39:28;;;;;;;49.10;21.70;;;;;;;-128.00;-1.00;-1.00;2;543183572;543183572;-33
2024/01/06 14:32:58;;;;;;;96.10;34.30;;;;;;;-102.67;19.20;19754.07;100780;1283;1598389;-31
2024/01/06 14:35:23;;;;;;;128.20;40.40;;;;;;;-128.00;-1.00;-1.00;100136;1282;1002914;-34
2024/01/06 14:37:50;;;;;;;97.00;32.00;;;;;;;-128.00;-1.00;-1.00;100374;1285;1003128;-30
2024/01/06 14:40:16;;;;;;;94.00;33.00;;;;;;;-128.00;-1.00;-1.00;100351;1283;1058083;-32
2024/01/06 14:42:42;;;;;;;82.10;27.90;;;;;;;-128.00;-1.00;-1.00;100378;1283;1004330;-32
2024/01/06 14:45:08;;;;;;;;;;;;;;;-128.00;-1.00;-1.00;100300;1283;1013350;-31
2024/01/06 14:47:33;;;;;;;54.40;20.40;;;;;;;-128.00;-1.00;-1.00;100324;1285;1003071;-33
2024/01/06 14:49:59;;;;;;;82.70;30.50;;;;;;;-128.00;-1.00;-1.00;100339;1285;1004318;-32
2024/01/06 14:52:25;;;;;;;81.40;30.50;;;;;;;-128.00;-1.00;-1.00;100282;1283;1056154;-31
2024/01/06 14:54:50;;;;;;;63.30;26.00;;;;;;;-128.00;-1.00;-1.00;100288;1283;1003950;-36
2024/01/06 14:57:16;;;;;;;51.10;21.50;;;;;;;-128.00;-1.00;-1.00;100271;1288;1038116;-32
2024/01/06 14:59:43;;;;;;;49.70;20.50;;;;;;;-128.00;-1.00;-1.00;100289;1285;1004373;-32
2024/01/06 15:02:08;;;;;;;46.40;19.10;;;;;;;-128.00;-1.00;-1.00;100240;1283;1003061;-33
2024/01/06 15:04:36;;;;;;;75.10;28.30;;;;;;;-128.00;-1.00;-1.00;100321;1285;1003012;-30
2024/01/06 15:07:02;;;;;;;74.60;29.40;;;;;;;-128.00;-1.00;-1.00;100278;1283;1013030;-32
2024/01/06 15:09:28;;;;;;;49.40;21.70;;;;;;;-128.00;-1.00;-1.00;100289;1283;1004522;-33
2024/01/06 15:11:54;;;;;;;55.70;22.90;;;;;;;-128.00;-1.00;-1.00;100302;1283;1002906;-36
2024/01/06 15:14:19;;;;;;;66.40;26.20;;;;;;;-128.00;-1.00;-1.00;100317;1283;1005172;-29
2024/01/06 15:16:45;;;;;;;56.40;23.30;;;;;;;-128.00;-1.00;-1.00;100170;1282;1004737;-32
2024/01/06 15:19:12;;;;;;;53.90;23.60;;;;;;;-128.00;-1.00;-1.00;100311;1283;1002833;-31
2024/01/06 15:21:37;;;;;;;59.30;23.20;;;;;;;-128.00;-1.00;-1.00;100300;1285;1002765;-31
2024/01/06 15:24:03;;;;;;;60.20;24.90;;;;;;;-128.00;-1.00;-1.00;100320;1282;1003738;-31
2024/01/06 15:26:29;;;;;;;61.90;24.40;;;;;;;-128.00;-1.00;-1.00;100262;1283;1055996;-31
2024/01/06 15:28:58;;;;;;;45.60;20.20;;;;;;;-128.00;-1.00;-1.00;100238;1283;1002944;-31
2024/01/06 15:31:23;;;;;;;44.60;18.10;;;;;;;-128.00;-1.00;-1.00;100339;1282;1038424;-31
2024/01/06 15:33:50;;;;;;;42.80;19.70;;;;;;;-128.00;-1.00;-1.00;100330;1283;1003140;-30
2024/01/06 15:36:15;;;;;;;;;;;;;;;-128.00;-1.00;-1.00;100304;1283;1003384;-29
2024/01/06 15:38:41;;;;;;;51.70;21.00;;;;;;;-128.00;-1.00;-1.00;100241;1283;1003232;-29
2024/01/06 15:41:07;;;;;;;53.10;19.70;;;;;;;-128.00;-1.00;-1.00;100287;1282;1013252;-33
2024/01/06 15:43:33;;;;;;;46.60;20.40;;;;;;;-128.00;-1.00;-1.00;100420;1283;1003851;-31
2024/01/06 15:45:58;;;;;;;;;;;;;;;-128.00;-1.00;-1.00;100353;1283;1003259;-30
2024/01/06 15:48:24;;;;;;;53.40;22.70;;;;;;;-128.00;-1.00;-1.00;100361;1283;1003321;-34
2024/01/06 15:50:51;;;;;;;46.40;20.20;;;;;;;-128.00;-1.00;-1.00;100283;1285;1059023;-34
2024/01/06 15:53:17;;;;;;;49.70;21.10;;;;;;;-128.00;-1.00;-1.00;100413;1285;1003175;-30
2024/01/06 15:55:43;;;;;;;54.90;23.60;;;;;;;-128.00;-1.00;-1.00;100287;1283;1004747;-32
2024/01/06 15:58:09;;;;;;;51.70;21.80;;;;;;;-128.00;-1.00;-1.00;100307;1283;1002999;-34
2024/01/06 16:00:35;;;;;;;;;;;;;;;-128.00;-1.00;-1.00;100392;1286;1003293;-32
2024/01/06 16:03:00;;;;;;;43.60;18.40;;;;;;;-128.00;-1.00;-1.00;100259;1283;1003750;-33
2024/01/06 16:05:26;;;;;;;48.30;20.90;;;;;;;-128.00;-1.00;-1.00;100284;1285;1013139;-32
2024/01/06 16:07:52;;;;;;;46.70;18.90;;;;;;;-128.00;-1.00;-1.00;100308;1283;1003616;-28
2024/01/06 16:10:21;;;;;;;52.30;22.80;;;;;;;-128.00;-1.00;-1.00;100330;1283;1003059;-28
2024/01/06 16:12:48;;;;;;;51.20;20.90;;;;;;;-128.00;-1.00;-1.00;100282;1289;1056825;-32
2024/01/06 16:15:13;;;;;;;45.10;21.80;;;;;;;-128.00;-1.00;-1.00;100251;1283;1002663;-31
2024/01/06 16:17:39;;;;;;;37.50;17.50;;;;;;;-128.00;-1.00;-1.00;100248;1283;1003014;-29
2024/01/06 16:20:06;;;;;;;49.70;20.80;;;;;;;-128.00;-1.00;-1.00;100288;1285;1002804;-30
2024/01/06 16:22:31;;;;;;;44.00;18.80;;;;;;;-128.00;-1.00;-1.00;100268;1283;1060137;-31
2024/01/06 16:24:58;;;;;;;35.90;16.70;;;;;;;-128.00;-1.00;-1.00;100290;1287;1003219;-47
2024/01/06 16:27:23;;;;;;;45.90;20.60;;;;;;;-128.00;-1.00;-1.00;100284;1283;1003276;-32
2024/01/06 16:29:49;;;;;;;55.00;22.70;;;;;;;-128.00;-1.00;-1.00;100246;1289;1003021;-30
2024/01/06 16:32:15;;;;;;;51.80;21.40;;;;;;;-128.00;-1.00;-1.00;100295;1283;1003525;-32
2024/01/06 16:34:41;;;;;;;41.50;19.70;;;;;;;-128.00;-1.00;-1.00;100265;1285;1003203;-30
2024/01/06 16:37:07;;;;;;;49.80;19.90;;;;;;;-128.00;-1.00;-1.00;100343;1287;1003435;-30
2024/01/06 16:39:33;;;;;;;50.80;22.60;;;;;;;-128.00;-1.00;-1.00;100156;1284;1003841;-31
2024/01/06 16:41:59;;;;;;;61.00;25.00;;;;;;;-128.00;-1.00;-1.00;100162;1283;1039548;-31
2024/01/06 16:44:24;;;;;;;50.00;22.20;;;;;;;-128.00;-1.00;-1.00;100278;1282;1002728;-30
2024/01/06 16:46:51;;;;;;;52.60;24.10;;;;;;;-128.00;-1.00;-1.00;100313;1285;1003353;-32
2024/01/06 16:49:16;;;;;;;42.70;20.40;;;;;;;-128.00;-1.00;-1.00;100288;1283;1058568;-30
2024/01/06 16:51:42;;;;;;;51.90;23.60;;;;;;;-128.00;-1.00;-1.00;100396;1283;1003122;-32
2024/01/06 16:54:08;;;;;;;59.50;25.60;;;;;;;-128.00;-1.00;-1.00;100407;1285;1004034;-35
2024/01/06 16:56:34;;;;;;;62.10;23.30;;;;;;;-128.00;-1.00;-1.00;100415;1283;1059166;-31
2024/01/06 16:58:59;;;;;;;47.40;20.70;;;;;;;-128.00;-1.00;-1.00;100243;1282;1003525;-34
2024/01/06 17:01:25;;;;;;;66.80;25.70;;;;;;;-128.00;-1.00;-1.00;100210;1284;1004078;-31
2024/01/06 17:03:50;;;;;;;72.00;26.00;;;;;;;-128.00;-1.00;-1.00;100238;1288;1002789;-31
2024/01/06 17:06:16;;;;;;;65.90;24.50;;;;;;;-128.00;-1.00;-1.00;100301;1286;1002832;-33
2024/01/06 17:08:42;;;;;;;68.10;24.00;;;;;;;-128.00;-1.00;-1.00;100296;1283;1056536;-33
2024/01/06 17:11:08;;;;;;;67.40;23.50;;;;;;;-128.00;-1.00;-1.00;100266;1286;1003333;-29